Palo Pinto, Texas
Current Conditions -  °F | °C
As of 10:53 PM on Monday 20 Oct 2014 (Local Time) from KMWL Reporting Station
Clear Clear  
Wind Chill: 67°   Ceiling: Unl
Heat Index: 67°   Visibility: 9mi
Dew Point: 57°   Wind: 7mph
Humidity: 70%   Direction: 140°SE
Pressure: 30.05"   Gusts: NA
Location:  32.77°N, 98.3°W
Report Text: KMWL 210353Z AUTO 14006KT 9SM CLR 19/14 A3005 RMK AO2 SLP166 T01940139
Loading
Personal Weather Stations






























Interactive Weather Map
Tropical Storm Tracking
New forecast layout! Learn more

10-Day Weather Forecast

Advertisements
Track Severe Weather on mobile